sensor_id;sensor_type;location;lat;lon;timestamp;temperature;humidity
983;DHT22;480;48.124;11.578;2022-12-18T00:00:33;-4.40;99.90
983;DHT22;480;48.124;11.578;2022-12-18T00:03:07;-4.30;99.90
983;DHT22;480;48.124;11.578;2022-12-18T00:05:46;-4.40;99.90
983;DHT22;480;48.124;11.578;2022-12-18T00:08:19;-4.30;99.90
983;DHT22;480;48.124;11.578;2022-12-18T00:10:48;-4.30;99.90
983;DHT22;480;48.124;11.578;2022-12-18T00:13:17;-4.40;99.90
983;DHT22;480;48.124;11.578;2022-12-18T00:15:47;-4.40;99.90
983;DHT22;480;48.124;11.578;2022-12-18T00:18:22;-4.40;99.90
983;DHT22;480;48.124;11.578;2022-12-18T00:20:50;-4.50;99.90
983;DHT22;480;48.124;11.578;2022-12-18T00:23:20;-4.40;99.90
983;DHT22;480;48.124;11.578;2022-12-18T00:25:51;-4.30;99.90
983;DHT22;480;48.124;11.578;2022-12-18T00:30:48;-3.90;99.90
983;DHT22;480;48.124;11.578;2022-12-18T00:33:31;-3.90;99.90
983;DHT22;480;48.124;11.578;2022-12-18T00:38:28;-4.10;99.90
983;DHT22;480;48.124;11.578;2022-12-18T00:40:57;-4.10;99.90
983;DHT22;480;48.124;11.578;2022-12-18T00:43:26;-4.10;99.90
983;DHT22;480;48.124;11.578;2022-12-18T00:45:57;-4.20;99.90
983;DHT22;480;48.124;11.578;2022-12-18T00:48:26;-4.30;99.90
983;DHT22;480;48.124;11.578;2022-12-18T00:50:55;-4.30;99.90
983;DHT22;480;48.124;11.578;2022-12-18T00:53:31;-4.30;99.90
983;DHT22;480;48.124;11.578;2022-12-18T00:56:01;-4.40;99.90
983;DHT22;480;48.124;11.578;2022-12-18T00:58:32;-4.40;99.90
983;DHT22;480;48.124;11.578;2022-12-18T01:01:05;-4.30;99.90
983;DHT22;480;48.124;11.578;2022-12-18T01:03:35;-4.40;99.90
983;DHT22;480;48.124;11.578;2022-12-18T01:06:06;-4.20;99.90
983;DHT22;480;48.124;11.578;2022-12-18T01:08:34;-4.20;99.90
983;DHT22;480;48.124;11.578;2022-12-18T01:11:07;-4.40;99.90
983;DHT22;480;48.124;11.578;2022-12-18T01:13:41;-4.40;99.90
983;DHT22;480;48.124;11.578;2022-12-18T01:16:18;-4.40;99.90
983;DHT22;480;48.124;11.578;2022-12-18T01:19:03;-4.40;99.90
983;DHT22;480;48.124;11.578;2022-12-18T01:21:30;-4.40;99.90
983;DHT22;480;48.124;11.578;2022-12-18T01:24:09;-4.40;99.90
983;DHT22;480;48.124;11.578;2022-12-18T01:26:38;-4.30;99.90
983;DHT22;480;48.124;11.578;2022-12-18T01:29:06;-4.10;99.90
983;DHT22;480;48.124;11.578;2022-12-18T01:31:48;-4.30;99.90
983;DHT22;480;48.124;11.578;2022-12-18T01:34:17;-4.30;99.90
983;DHT22;480;48.124;11.578;2022-12-18T01:42:19;-4.40;99.90
983;DHT22;480;48.124;11.578;2022-12-18T01:45:00;-4.40;99.90
983;DHT22;480;48.124;11.578;2022-12-18T01:47:38;-4.30;99.90
983;DHT22;480;48.124;11.578;2022-12-18T01:50:17;-4.30;99.90
983;DHT22;480;48.124;11.578;2022-12-18T02:06:00;-4.50;99.90
983;DHT22;480;48.124;11.578;2022-12-18T02:08:40;-4.60;99.90
983;DHT22;480;48.124;11.578;2022-12-18T02:14:06;-4.50;99.90
983;DHT22;480;48.124;11.578;2022-12-18T02:16:43;-4.60;99.90
983;DHT22;480;48.124;11.578;2022-12-18T02:19:42;-4.60;99.90
983;DHT22;480;48.124;11.578;2022-12-18T02:22:29;-4.60;99.90
983;DHT22;480;48.124;11.578;2022-12-18T02:25:25;-4.60;99.90
983;DHT22;480;48.124;11.578;2022-12-18T02:28:25;-4.50;99.90
983;DHT22;480;48.124;11.578;2022-12-18T02:34:04;-4.50;99.90
983;DHT22;480;48.124;11.578;2022-12-18T02:36:34;-4.50;99.90
983;DHT22;480;48.124;11.578;2022-12-18T02:39:09;-4.50;99.90
983;DHT22;480;48.124;11.578;2022-12-18T02:41:41;-4.40;99.90
983;DHT22;480;48.124;11.578;2022-12-18T02:44:23;-4.40;99.90
983;DHT22;480;48.124;11.578;2022-12-18T02:46:53;-4.40;99.90
983;DHT22;480;48.124;11.578;2022-12-18T02:49:36;-4.50;99.90
983;DHT22;480;48.124;11.578;2022-12-18T02:52:28;-4.40;99.90
983;DHT22;480;48.124;11.578;2022-12-18T02:55:14;-4.50;99.90
983;DHT22;480;48.124;11.578;2022-12-18T02:57:55;-4.50;99.90
983;DHT22;480;48.124;11.578;2022-12-18T03:00:33;-4.50;99.90
983;DHT22;480;48.124;11.578;2022-12-18T03:03:16;-4.40;99.90
983;DHT22;480;48.124;11.578;2022-12-18T03:05:55;-4.40;99.90
983;DHT22;480;48.124;11.578;2022-12-18T03:08:26;-4.50;99.90
983;DHT22;480;48.124;11.578;2022-12-18T03:11:03;-4.50;99.90
983;DHT22;480;48.124;11.578;2022-12-18T03:13:42;-4.40;99.90
983;DHT22;480;48.124;11.578;2022-12-18T03:16:17;-4.40;99.90
983;DHT22;480;48.124;11.578;2022-12-18T03:18:47;-4.50;99.90
983;DHT22;480;48.124;11.578;2022-12-18T03:21:18;-4.40;99.90
983;DHT22;480;48.124;11.578;2022-12-18T03:23:49;-4.50;99.90
983;DHT22;480;48.124;11.578;2022-12-18T03:26:20;-4.50;99.90
983;DHT22;480;48.124;11.578;2022-12-18T03:28:52;-4.40;99.90
983;DHT22;480;48.124;11.578;2022-12-18T03:31:23;-4.40;99.90
983;DHT22;480;48.124;11.578;2022-12-18T03:33:53;-4.40;99.90
983;DHT22;480;48.124;11.578;2022-12-18T03:36:32;-4.40;99.90
983;DHT22;480;48.124;11.578;2022-12-18T03:39:00;-4.40;99.90
983;DHT22;480;48.124;11.578;2022-12-18T03:41:33;-4.20;99.90
983;DHT22;480;48.124;11.578;2022-12-18T03:44:08;-4.30;99.90
983;DHT22;480;48.124;11.578;2022-12-18T03:46:42;-4.40;99.90
983;DHT22;480;48.124;11.578;2022-12-18T03:49:23;-4.40;99.90
983;DHT22;480;48.124;11.578;2022-12-18T03:54:26;-4.60;99.90
983;DHT22;480;48.124;11.578;2022-12-18T03:57:07;-4.50;99.90
983;DHT22;480;48.124;11.578;2022-12-18T03:59:45;-4.40;99.90
983;DHT22;480;48.124;11.578;2022-12-18T04:02:17;-4.40;99.90
983;DHT22;480;48.124;11.578;2022-12-18T04:04:45;-4.40;99.90
983;DHT22;480;48.124;11.578;2022-12-18T04:07:17;-4.40;99.90
983;DHT22;480;48.124;11.578;2022-12-18T04:09:48;-4.40;99.90
983;DHT22;480;48.124;11.578;2022-12-18T04:12:24;-4.20;99.90
983;DHT22;480;48.124;11.578;2022-12-18T04:14:52;-4.30;99.90
983;DHT22;480;48.124;11.578;2022-12-18T04:17:22;-4.20;99.90
983;DHT22;480;48.124;11.578;2022-12-18T04:20:02;-4.20;99.90
983;DHT22;480;48.124;11.578;2022-12-18T04:22:34;-4.10;99.90
983;DHT22;480;48.124;11.578;2022-12-18T04:25:02;-3.90;99.90
983;DHT22;480;48.124;11.578;2022-12-18T04:27:32;-3.90;99.90
983;DHT22;480;48.124;11.578;2022-12-18T04:30:00;-3.90;99.90
983;DHT22;480;48.124;11.578;2022-12-18T04:32:33;-4.00;99.90
983;DHT22;480;48.124;11.578;2022-12-18T04:35:02;-4.20;99.90
983;DHT22;480;48.124;11.578;2022-12-18T04:37:32;-4.30;99.90
983;DHT22;480;48.124;11.578;2022-12-18T04:39:59;-4.20;99.90
983;DHT22;480;48.124;11.578;2022-12-18T04:42:27;-4.20;99.90
983;DHT22;480;48.124;11.578;2022-12-18T04:44:54;-4.30;99.90
983;DHT22;480;48.124;11.578;2022-12-18T04:47:21;-4.40;99.90
983;DHT22;480;48.124;11.578;2022-12-18T04:49:49;-4.50;99.90
983;DHT22;480;48.124;11.578;2022-12-18T04:52:17;-4.50;99.90
983;DHT22;480;48.124;11.578;2022-12-18T04:54:44;-4.40;99.90
983;DHT22;480;48.124;11.578;2022-12-18T04:57:11;-4.40;99.90
983;DHT22;480;48.124;11.578;2022-12-18T04:59:38;-4.40;99.90
983;DHT22;480;48.124;11.578;2022-12-18T05:02:05;-4.30;99.90
983;DHT22;480;48.124;11.578;2022-12-18T05:04:32;-4.40;99.90
983;DHT22;480;48.124;11.578;2022-12-18T05:07:01;-4.30;99.90
983;DHT22;480;48.124;11.578;2022-12-18T05:09:28;-4.20;99.90
983;DHT22;480;48.124;11.578;2022-12-18T05:11:55;-4.20;99.90
983;DHT22;480;48.124;11.578;2022-12-18T05:14:22;-4.20;99.90
983;DHT22;480;48.124;11.578;2022-12-18T05:16:50;-4.10;99.90
983;DHT22;480;48.124;11.578;2022-12-18T05:19:17;-4.10;99.90
983;DHT22;480;48.124;11.578;2022-12-18T05:21:45;-4.10;99.90
983;DHT22;480;48.124;11.578;2022-12-18T05:24:14;-4.00;99.90
983;DHT22;480;48.124;11.578;2022-12-18T05:26:41;-3.90;99.90
983;DHT22;480;48.124;11.578;2022-12-18T05:29:08;-3.90;99.90
983;DHT22;480;48.124;11.578;2022-12-18T05:31:38;-4.10;99.90
983;DHT22;480;48.124;11.578;2022-12-18T05:34:08;-4.20;99.90
983;DHT22;480;48.124;11.578;2022-12-18T05:36:35;-4.30;99.90
983;DHT22;480;48.124;11.578;2022-12-18T05:39:02;-4.20;99.90
983;DHT22;480;48.124;11.578;2022-12-18T05:41:31;-4.20;99.90
983;DHT22;480;48.124;11.578;2022-12-18T05:43:59;-4.00;99.90
983;DHT22;480;48.124;11.578;2022-12-18T05:46:27;-4.10;99.90
983;DHT22;480;48.124;11.578;2022-12-18T05:49:07;-4.20;99.90
983;DHT22;480;48.124;11.578;2022-12-18T05:51:41;-4.40;99.90
983;DHT22;480;48.124;11.578;2022-12-18T05:54:08;-4.30;99.90
983;DHT22;480;48.124;11.578;2022-12-18T05:56:42;-4.30;99.90
983;DHT22;480;48.124;11.578;2022-12-18T05:59:09;-4.30;99.90
983;DHT22;480;48.124;11.578;2022-12-18T06:01:49;-4.20;99.90
983;DHT22;480;48.124;11.578;2022-12-18T06:04:17;-4.30;99.90
983;DHT22;480;48.124;11.578;2022-12-18T06:06:44;-4.20;99.90
983;DHT22;480;48.124;11.578;2022-12-18T06:09:14;-4.30;99.90
983;DHT22;480;48.124;11.578;2022-12-18T06:11:46;-4.40;99.90
983;DHT22;480;48.124;11.578;2022-12-18T06:14:13;-4.40;99.90
983;DHT22;480;48.124;11.578;2022-12-18T06:16:43;-4.40;99.90
983;DHT22;480;48.124;11.578;2022-12-18T06:19:15;-4.30;99.90
983;DHT22;480;48.124;11.578;2022-12-18T06:21:42;-4.20;99.90
983;DHT22;480;48.124;11.578;2022-12-18T06:24:11;-4.30;99.90
983;DHT22;480;48.124;11.578;2022-12-18T06:26:38;-4.40;99.90
983;DHT22;480;48.124;11.578;2022-12-18T06:29:07;-4.30;99.90
983;DHT22;480;48.124;11.578;2022-12-18T06:31:35;-4.30;99.90
983;DHT22;480;48.124;11.578;2022-12-18T06:34:03;-4.40;99.90
983;DHT22;480;48.124;11.578;2022-12-18T06:36:30;-4.40;99.90
983;DHT22;480;48.124;11.578;2022-12-18T06:38:58;-4.50;99.90
983;DHT22;480;48.124;11.578;2022-12-18T06:41:25;-4.50;99.90
983;DHT22;480;48.124;11.578;2022-12-18T06:43:52;-4.50;99.90
983;DHT22;480;48.124;11.578;2022-12-18T06:46:21;-4.40;99.90
983;DHT22;480;48.124;11.578;2022-12-18T06:48:49;-4.40;99.90
983;DHT22;480;48.124;11.578;2022-12-18T06:51:18;-4.30;99.90
983;DHT22;480;48.124;11.578;2022-12-18T06:53:45;-4.30;99.90
983;DHT22;480;48.124;11.578;2022-12-18T06:56:13;-4.30;99.90
983;DHT22;480;48.124;11.578;2022-12-18T06:58:43;-4.40;99.90
983;DHT22;480;48.124;11.578;2022-12-18T07:01:13;-4.30;99.90
983;DHT22;480;48.124;11.578;2022-12-18T07:03:43;-4.40;99.90
983;DHT22;480;48.124;11.578;2022-12-18T07:06:17;-4.40;99.90
983;DHT22;480;48.124;11.578;2022-12-18T07:08:44;-4.50;99.90
983;DHT22;480;48.124;11.578;2022-12-18T07:11:12;-4.50;99.90
983;DHT22;480;48.124;11.578;2022-12-18T07:13:39;-4.50;99.90
983;DHT22;480;48.124;11.578;2022-12-18T07:16:07;-4.50;99.90
983;DHT22;480;48.124;11.578;2022-12-18T07:18:36;-4.50;99.90
983;DHT22;480;48.124;11.578;2022-12-18T07:21:20;-4.30;99.90
983;DHT22;480;48.124;11.578;2022-12-18T07:23:48;-4.50;99.90
983;DHT22;480;48.124;11.578;2022-12-18T07:26:17;-4.40;99.90
983;DHT22;480;48.124;11.578;2022-12-18T07:28:44;-4.50;99.90
983;DHT22;480;48.124;11.578;2022-12-18T07:31:12;-4.60;99.90
983;DHT22;480;48.124;11.578;2022-12-18T07:33:40;-4.40;99.90
983;DHT22;480;48.124;11.578;2022-12-18T07:36:08;-4.40;99.90
983;DHT22;480;48.124;11.578;2022-12-18T07:38:38;-4.50;99.90
983;DHT22;480;48.124;11.578;2022-12-18T07:41:07;-4.40;99.90
983;DHT22;480;48.124;11.578;2022-12-18T07:43:34;-4.30;99.90
983;DHT22;480;48.124;11.578;2022-12-18T07:46:02;-4.30;99.90
983;DHT22;480;48.124;11.578;2022-12-18T07:48:30;-4.40;99.90
983;DHT22;480;48.124;11.578;2022-12-18T07:50:58;-4.40;99.90
983;DHT22;480;48.124;11.578;2022-12-18T07:53:27;-4.30;99.90
983;DHT22;480;48.124;11.578;2022-12-18T07:56:01;-4.40;99.90
983;DHT22;480;48.124;11.578;2022-12-18T07:58:29;-4.40;99.90
983;DHT22;480;48.124;11.578;2022-12-18T08:01:03;-4.30;99.90
983;DHT22;480;48.124;11.578;2022-12-18T08:03:30;-4.20;99.90
983;DHT22;480;48.124;11.578;2022-12-18T08:05:59;-4.20;99.90
983;DHT22;480;48.124;11.578;2022-12-18T08:08:27;-4.30;99.90
983;DHT22;480;48.124;11.578;2022-12-18T08:10:54;-4.40;99.90
983;DHT22;480;48.124;11.578;2022-12-18T08:13:23;-4.70;99.90
983;DHT22;480;48.124;11.578;2022-12-18T08:15:56;-4.60;99.90
983;DHT22;480;48.124;11.578;2022-12-18T08:18:23;-4.70;99.90
983;DHT22;480;48.124;11.578;2022-12-18T08:20:51;-4.80;99.90
983;DHT22;480;48.124;11.578;2022-12-18T08:23:19;-4.60;99.90
983;DHT22;480;48.124;11.578;2022-12-18T08:25:46;-4.50;99.90
983;DHT22;480;48.124;11.578;2022-12-18T08:28:13;-4.50;99.90
983;DHT22;480;48.124;11.578;2022-12-18T08:30:45;-4.50;99.90
983;DHT22;480;48.124;11.578;2022-12-18T08:33:12;-4.60;99.90
983;DHT22;480;48.124;11.578;2022-12-18T08:35:39;-4.70;99.90
983;DHT22;480;48.124;11.578;2022-12-18T08:38:07;-4.70;99.90
983;DHT22;480;48.124;11.578;2022-12-18T08:40:34;-4.80;99.90
983;DHT22;480;48.124;11.578;2022-12-18T08:43:01;-4.70;99.90
983;DHT22;480;48.124;11.578;2022-12-18T08:45:45;-4.60;99.90
983;DHT22;480;48.124;11.578;2022-12-18T08:48:13;-4.60;99.90
983;DHT22;480;48.124;11.578;2022-12-18T08:50:41;-4.70;99.90
983;DHT22;480;48.124;11.578;2022-12-18T08:53:08;-4.70;99.90
983;DHT22;480;48.124;11.578;2022-12-18T08:55:36;-4.70;99.90
983;DHT22;480;48.124;11.578;2022-12-18T08:58:03;-4.50;99.90
983;DHT22;480;48.124;11.578;2022-12-18T09:00:33;-4.40;99.90
983;DHT22;480;48.124;11.578;2022-12-18T09:03:03;-4.50;99.90
983;DHT22;480;48.124;11.578;2022-12-18T09:05:30;-4.50;99.90
983;DHT22;480;48.124;11.578;2022-12-18T09:07:57;-4.40;99.90
983;DHT22;480;48.124;11.578;2022-12-18T09:10:24;-4.40;99.90
983;DHT22;480;48.124;11.578;2022-12-18T09:12:51;-4.60;99.90
983;DHT22;480;48.124;11.578;2022-12-18T09:15:18;-4.60;99.90
983;DHT22;480;48.124;11.578;2022-12-18T09:17:46;-4.60;99.90
983;DHT22;480;48.124;11.578;2022-12-18T09:20:15;-4.50;99.90
983;DHT22;480;48.124;11.578;2022-12-18T09:22:42;-4.70;99.90
983;DHT22;480;48.124;11.578;2022-12-18T09:25:09;-4.60;99.90
983;DHT22;480;48.124;11.578;2022-12-18T09:27:36;-4.50;99.90
983;DHT22;480;48.124;11.578;2022-12-18T09:30:04;-4.50;99.90
983;DHT22;480;48.124;11.578;2022-12-18T09:32:31;-4.50;99.90
983;DHT22;480;48.124;11.578;2022-12-18T09:34:58;-4.40;99.90
983;DHT22;480;48.124;11.578;2022-12-18T09:37:27;-4.60;99.90
983;DHT22;480;48.124;11.578;2022-12-18T09:39:54;-4.50;99.90
983;DHT22;480;48.124;11.578;2022-12-18T09:42:22;-4.50;99.90
983;DHT22;480;48.124;11.578;2022-12-18T09:44:51;-4.40;99.90
983;DHT22;480;48.124;11.578;2022-12-18T09:47:23;-4.40;99.90
983;DHT22;480;48.124;11.578;2022-12-18T09:49:53;-4.10;99.90
983;DHT22;480;48.124;11.578;2022-12-18T09:52:26;-3.80;99.90
983;DHT22;480;48.124;11.578;2022-12-18T09:54:58;-4.10;99.90
983;DHT22;480;48.124;11.578;2022-12-18T09:57:37;-4.30;99.90
983;DHT22;480;48.124;11.578;2022-12-18T10:00:15;-4.30;99.90
983;DHT22;480;48.124;11.578;2022-12-18T10:02:43;-4.40;99.90
983;DHT22;480;48.124;11.578;2022-12-18T10:05:12;-4.50;99.90
983;DHT22;480;48.124;11.578;2022-12-18T10:07:50;-4.40;99.90
983;DHT22;480;48.124;11.578;2022-12-18T10:10:27;-4.50;99.90
983;DHT22;480;48.124;11.578;2022-12-18T10:13:04;-4.40;99.90
983;DHT22;480;48.124;11.578;2022-12-18T10:15:39;-4.70;99.90
983;DHT22;480;48.124;11.578;2022-12-18T10:18:19;-4.80;99.90
983;DHT22;480;48.124;11.578;2022-12-18T10:20:49;-5.00;99.90
983;DHT22;480;48.124;11.578;2022-12-18T10:23:25;-4.90;99.90
983;DHT22;480;48.124;11.578;2022-12-18T10:25:59;-4.90;99.90
983;DHT22;480;48.124;11.578;2022-12-18T10:28:30;-4.80;99.90
983;DHT22;480;48.124;11.578;2022-12-18T10:30:57;-4.70;99.90
983;DHT22;480;48.124;11.578;2022-12-18T10:33:28;-4.70;99.90
983;DHT22;480;48.124;11.578;2022-12-18T10:35:55;-4.40;99.90
983;DHT22;480;48.124;11.578;2022-12-18T10:38:27;-4.60;99.90
983;DHT22;480;48.124;11.578;2022-12-18T10:40:56;-4.70;99.90
983;DHT22;480;48.124;11.578;2022-12-18T10:43:26;-4.60;99.90
983;DHT22;480;48.124;11.578;2022-12-18T10:46:12;-4.70;99.90
983;DHT22;480;48.124;11.578;2022-12-18T10:48:52;-4.30;99.90
983;DHT22;480;48.124;11.578;2022-12-18T10:51:22;-4.40;99.90
983;DHT22;480;48.124;11.578;2022-12-18T10:53:57;-4.30;99.90
983;DHT22;480;48.124;11.578;2022-12-18T10:56:27;-4.10;99.90
983;DHT22;480;48.124;11.578;2022-12-18T10:58:58;-4.00;99.90
983;DHT22;480;48.124;11.578;2022-12-18T11:01:26;-4.50;99.90
983;DHT22;480;48.124;11.578;2022-12-18T11:04:01;-4.50;99.90
983;DHT22;480;48.124;11.578;2022-12-18T11:09:21;-4.80;99.90
983;DHT22;480;48.124;11.578;2022-12-18T11:11:50;-4.70;99.90
983;DHT22;480;48.124;11.578;2022-12-18T11:14:24;-4.60;99.90
983;DHT22;480;48.124;11.578;2022-12-18T11:16:52;-4.30;99.90
983;DHT22;480;48.124;11.578;2022-12-18T11:19:30;-4.40;99.90
983;DHT22;480;48.124;11.578;2022-12-18T11:21:58;-4.40;99.90
983;DHT22;480;48.124;11.578;2022-12-18T11:24:30;-4.40;99.90
983;DHT22;480;48.124;11.578;2022-12-18T11:27:02;-4.30;99.90
983;DHT22;480;48.124;11.578;2022-12-18T11:29:35;-4.10;99.90
983;DHT22;480;48.124;11.578;2022-12-18T11:35:13;-3.80;99.90
983;DHT22;480;48.124;11.578;2022-12-18T11:37:44;-3.40;99.90
983;DHT22;480;48.124;11.578;2022-12-18T11:40:18;-3.00;99.90
983;DHT22;480;48.124;11.578;2022-12-18T11:42:50;-2.80;99.90
983;DHT22;480;48.124;11.578;2022-12-18T11:45:27;-2.70;99.90
983;DHT22;480;48.124;11.578;2022-12-18T11:48:01;-3.30;99.90
983;DHT22;480;48.124;11.578;2022-12-18T11:50:33;-3.30;99.90
983;DHT22;480;48.124;11.578;2022-12-18T11:53:10;-3.30;99.90
983;DHT22;480;48.124;11.578;2022-12-18T11:55:43;-3.70;99.90
983;DHT22;480;48.124;11.578;2022-12-18T11:58:23;-3.70;99.90
983;DHT22;480;48.124;11.578;2022-12-18T12:00:59;-3.30;99.90
983;DHT22;480;48.124;11.578;2022-12-18T12:03:50;-2.70;99.90
983;DHT22;480;48.124;11.578;2022-12-18T12:06:25;-2.90;99.90
983;DHT22;480;48.124;11.578;2022-12-18T12:09:04;-3.70;99.90
983;DHT22;480;48.124;11.578;2022-12-18T12:11:47;-3.90;99.90
983;DHT22;480;48.124;11.578;2022-12-18T12:14:43;-4.00;99.90
983;DHT22;480;48.124;11.578;2022-12-18T12:17:17;-3.80;99.90
983;DHT22;480;48.124;11.578;2022-12-18T12:19:53;-3.90;99.90
983;DHT22;480;48.124;11.578;2022-12-18T12:22:30;-4.10;99.90
983;DHT22;480;48.124;11.578;2022-12-18T12:25:18;-4.30;99.90
983;DHT22;480;48.124;11.578;2022-12-18T12:27:57;-4.20;99.90
983;DHT22;480;48.124;11.578;2022-12-18T12:30:35;-4.30;99.90
983;DHT22;480;48.124;11.578;2022-12-18T12:33:14;-4.30;99.90
983;DHT22;480;48.124;11.578;2022-12-18T12:35:49;-4.20;99.90
983;DHT22;480;48.124;11.578;2022-12-18T12:38:22;-4.10;99.90
983;DHT22;480;48.124;11.578;2022-12-18T12:40:56;-4.00;99.90
983;DHT22;480;48.124;11.578;2022-12-18T12:43:33;-4.10;99.90
983;DHT22;480;48.124;11.578;2022-12-18T12:46:05;-4.30;99.90
983;DHT22;480;48.124;11.578;2022-12-18T12:48:40;-4.50;99.90
983;DHT22;480;48.124;11.578;2022-12-18T12:51:12;-4.60;99.90
983;DHT22;480;48.124;11.578;2022-12-18T12:53:41;-4.40;99.90
983;DHT22;480;48.124;11.578;2022-12-18T12:56:11;-4.40;99.90
983;DHT22;480;48.124;11.578;2022-12-18T12:58:49;-4.60;99.90
983;DHT22;480;48.124;11.578;2022-12-18T13:01:28;-4.30;99.90
983;DHT22;480;48.124;11.578;2022-12-18T13:04:06;-4.30;99.90
983;DHT22;480;48.124;11.578;2022-12-18T13:06:43;-4.10;99.90
983;DHT22;480;48.124;11.578;2022-12-18T13:09:17;-4.00;99.90
983;DHT22;480;48.124;11.578;2022-12-18T13:11:46;-4.20;99.90
983;DHT22;480;48.124;11.578;2022-12-18T13:14:34;-4.20;99.90
983;DHT22;480;48.124;11.578;2022-12-18T13:17:31;-4.30;99.90
983;DHT22;480;48.124;11.578;2022-12-18T13:20:19;-4.20;99.90
983;DHT22;480;48.124;11.578;2022-12-18T13:22:48;-4.10;99.90
983;DHT22;480;48.124;11.578;2022-12-18T13:25:34;-4.20;99.90
983;DHT22;480;48.124;11.578;2022-12-18T13:28:08;-4.20;99.90
983;DHT22;480;48.124;11.578;2022-12-18T13:31:03;-4.20;99.90
983;DHT22;480;48.124;11.578;2022-12-18T13:33:48;-4.30;99.90
983;DHT22;480;48.124;11.578;2022-12-18T13:36:27;-4.20;99.90
983;DHT22;480;48.124;11.578;2022-12-18T13:39:24;-4.40;99.90
983;DHT22;480;48.124;11.578;2022-12-18T13:41:53;-4.50;99.90
983;DHT22;480;48.124;11.578;2022-12-18T13:45:01;-4.20;99.90
983;DHT22;480;48.124;11.578;2022-12-18T13:47:33;-4.30;99.90
983;DHT22;480;48.124;11.578;2022-12-18T13:50:02;-4.30;99.90
983;DHT22;480;48.124;11.578;2022-12-18T13:52:38;-4.30;99.90
983;DHT22;480;48.124;11.578;2022-12-18T13:55:14;-4.30;99.90
983;DHT22;480;48.124;11.578;2022-12-18T13:57:44;-4.20;99.90
983;DHT22;480;48.124;11.578;2022-12-18T14:00:24;-4.20;99.90
983;DHT22;480;48.124;11.578;2022-12-18T14:02:56;-4.20;99.90
983;DHT22;480;48.124;11.578;2022-12-18T14:05:27;-4.10;99.90
983;DHT22;480;48.124;11.578;2022-12-18T14:08:00;-4.10;99.90
983;DHT22;480;48.124;11.578;2022-12-18T14:10:31;-4.20;99.90
983;DHT22;480;48.124;11.578;2022-12-18T14:13:06;-4.30;99.90
983;DHT22;480;48.124;11.578;2022-12-18T14:15:35;-4.20;99.90
983;DHT22;480;48.124;11.578;2022-12-18T14:18:18;-4.10;99.90
983;DHT22;480;48.124;11.578;2022-12-18T14:20:47;-4.10;99.90
983;DHT22;480;48.124;11.578;2022-12-18T14:23:33;-4.10;99.90
983;DHT22;480;48.124;11.578;2022-12-18T14:26:00;-4.20;99.90
983;DHT22;480;48.124;11.578;2022-12-18T14:28:31;-4.10;99.90
983;DHT22;480;48.124;11.578;2022-12-18T14:31:02;-4.10;99.90
983;DHT22;480;48.124;11.578;2022-12-18T14:33:31;-3.90;99.90
983;DHT22;480;48.124;11.578;2022-12-18T14:36:00;-3.90;99.90
983;DHT22;480;48.124;11.578;2022-12-18T14:38:31;-3.90;99.90
983;DHT22;480;48.124;11.578;2022-12-18T14:40:59;-3.90;99.90
983;DHT22;480;48.124;11.578;2022-12-18T14:43:28;-4.00;99.90
983;DHT22;480;48.124;11.578;2022-12-18T14:45:56;-4.20;99.90
983;DHT22;480;48.124;11.578;2022-12-18T14:48:39;-4.20;99.90
983;DHT22;480;48.124;11.578;2022-12-18T14:51:13;-4.30;99.90
983;DHT22;480;48.124;11.578;2022-12-18T14:53:44;-4.40;99.90
983;DHT22;480;48.124;11.578;2022-12-18T14:56:16;-4.10;99.90
983;DHT22;480;48.124;11.578;2022-12-18T14:58:48;-4.30;99.90
983;DHT22;480;48.124;11.578;2022-12-18T15:01:20;-4.00;99.90
983;DHT22;480;48.124;11.578;2022-12-18T15:03:51;-4.20;99.90
983;DHT22;480;48.124;11.578;2022-12-18T15:06:29;-4.20;99.90
983;DHT22;480;48.124;11.578;2022-12-18T15:08:57;-4.20;99.90
983;DHT22;480;48.124;11.578;2022-12-18T15:11:27;-4.20;99.90
983;DHT22;480;48.124;11.578;2022-12-18T15:13:57;-4.30;99.90
983;DHT22;480;48.124;11.578;2022-12-18T15:16:24;-4.10;99.90
983;DHT22;480;48.124;11.578;2022-12-18T15:18:53;-3.90;99.90
983;DHT22;480;48.124;11.578;2022-12-18T15:21:21;-4.20;99.90
983;DHT22;480;48.124;11.578;2022-12-18T15:23:50;-4.30;99.90
983;DHT22;480;48.124;11.578;2022-12-18T15:26:20;-4.30;99.90
983;DHT22;480;48.124;11.578;2022-12-18T15:28:49;-4.30;99.90
983;DHT22;480;48.124;11.578;2022-12-18T15:31:24;-4.50;99.90
983;DHT22;480;48.124;11.578;2022-12-18T15:34:12;-4.50;99.90
983;DHT22;480;48.124;11.578;2022-12-18T15:36:42;-4.60;99.90
983;DHT22;480;48.124;11.578;2022-12-18T15:39:14;-4.70;99.90
983;DHT22;480;48.124;11.578;2022-12-18T15:41:41;-4.60;99.90
983;DHT22;480;48.124;11.578;2022-12-18T15:44:29;-4.70;99.90
983;DHT22;480;48.124;11.578;2022-12-18T15:46:56;-4.60;99.90
983;DHT22;480;48.124;11.578;2022-12-18T15:49:26;-4.50;99.90
983;DHT22;480;48.124;11.578;2022-12-18T15:51:56;-4.60;99.90
983;DHT22;480;48.124;11.578;2022-12-18T15:54:27;-4.60;99.90
983;DHT22;480;48.124;11.578;2022-12-18T15:57:13;-4.70;99.90
983;DHT22;480;48.124;11.578;2022-12-18T15:59:54;-4.70;99.90
983;DHT22;480;48.124;11.578;2022-12-18T16:02:25;-4.70;99.90
983;DHT22;480;48.124;11.578;2022-12-18T16:04:55;-4.60;99.90
983;DHT22;480;48.124;11.578;2022-12-18T16:07:25;-4.70;99.90
983;DHT22;480;48.124;11.578;2022-12-18T16:09:52;-4.80;99.90
983;DHT22;480;48.124;11.578;2022-12-18T16:12:21;-4.90;99.90
983;DHT22;480;48.124;11.578;2022-12-18T16:14:52;-4.70;99.90
983;DHT22;480;48.124;11.578;2022-12-18T16:17:21;-4.60;99.90
983;DHT22;480;48.124;11.578;2022-12-18T16:19:49;-4.60;99.90
983;DHT22;480;48.124;11.578;2022-12-18T16:22:23;-4.70;99.90
983;DHT22;480;48.124;11.578;2022-12-18T16:24:51;-4.60;99.90
983;DHT22;480;48.124;11.578;2022-12-18T16:27:18;-4.70;99.90
983;DHT22;480;48.124;11.578;2022-12-18T16:29:47;-4.60;99.90
983;DHT22;480;48.124;11.578;2022-12-18T16:32:17;-4.30;99.90
983;DHT22;480;48.124;11.578;2022-12-18T16:34:46;-4.10;99.90
983;DHT22;480;48.124;11.578;2022-12-18T16:37:14;-4.30;99.90
983;DHT22;480;48.124;11.578;2022-12-18T16:39:47;-4.40;99.90
983;DHT22;480;48.124;11.578;2022-12-18T16:42:18;-4.40;99.90
983;DHT22;480;48.124;11.578;2022-12-18T16:44:46;-4.40;99.90
983;DHT22;480;48.124;11.578;2022-12-18T16:47:14;-4.20;99.90
983;DHT22;480;48.124;11.578;2022-12-18T16:49:43;-4.50;99.90
983;DHT22;480;48.124;11.578;2022-12-18T16:52:12;-4.50;99.90
983;DHT22;480;48.124;11.578;2022-12-18T16:54:40;-4.50;99.90
983;DHT22;480;48.124;11.578;2022-12-18T16:57:13;-4.60;99.90
983;DHT22;480;48.124;11.578;2022-12-18T16:59:41;-4.60;99.90
983;DHT22;480;48.124;11.578;2022-12-18T17:02:12;-4.60;99.90
983;DHT22;480;48.124;11.578;2022-12-18T17:04:41;-4.60;99.90
983;DHT22;480;48.124;11.578;2022-12-18T17:07:08;-4.50;99.90
983;DHT22;480;48.124;11.578;2022-12-18T17:09:37;-4.30;99.90
983;DHT22;480;48.124;11.578;2022-12-18T17:12:08;-4.50;99.90
983;DHT22;480;48.124;11.578;2022-12-18T17:14:37;-4.60;99.90
983;DHT22;480;48.124;11.578;2022-12-18T17:17:04;-4.70;99.90
983;DHT22;480;48.124;11.578;2022-12-18T17:19:32;-4.70;99.90
983;DHT22;480;48.124;11.578;2022-12-18T17:21:59;-4.70;99.90
983;DHT22;480;48.124;11.578;2022-12-18T17:24:27;-4.80;99.90
983;DHT22;480;48.124;11.578;2022-12-18T17:26:55;-4.70;99.90